sensor_id;sensor_type;location;lat;lon;timestamp;P1;durP1;ratioP1;P2;durP2;ratioP2
6362;SDS011;3214;49.932;8.494;2024-03-25T00:00:45;2.87;;;1.50;;
6362;SDS011;3214;49.932;8.494;2024-03-25T00:03:11;2.73;;;1.60;;
6362;SDS011;3214;49.932;8.494;2024-03-25T00:05:37;4.27;;;1.53;;
6362;SDS011;3214;49.932;8.494;2024-03-25T00:08:04;3.97;;;1.13;;
6362;SDS011;3214;49.932;8.494;2024-03-25T00:10:31;5.97;;;1.40;;
6362;SDS011;3214;49.932;8.494;2024-03-25T00:12:58;3.37;;;1.30;;
6362;SDS011;3214;49.932;8.494;2024-03-25T00:15:25;5.73;;;1.40;;
6362;SDS011;3214;49.932;8.494;2024-03-25T00:17:51;6.10;;;1.60;;
6362;SDS011;3214;49.932;8.494;2024-03-25T00:20:18;5.00;;;1.53;;
6362;SDS011;3214;49.932;8.494;2024-03-25T00:22:43;5.47;;;1.70;;
6362;SDS011;3214;49.932;8.494;2024-03-25T00:25:10;3.63;;;1.33;;
6362;SDS011;3214;49.932;8.494;2024-03-25T00:27:37;4.57;;;1.53;;
6362;SDS011;3214;49.932;8.494;2024-03-25T00:30:05;2.13;;;1.53;;
6362;SDS011;3214;49.932;8.494;2024-03-25T00:32:31;3.13;;;1.70;;
6362;SDS011;3214;49.932;8.494;2024-03-25T00:34:58;2.97;;;1.50;;
6362;SDS011;3214;49.932;8.494;2024-03-25T00:37:24;3.47;;;1.40;;
6362;SDS011;3214;49.932;8.494;2024-03-25T00:39:51;6.47;;;2.53;;
6362;SDS011;3214;49.932;8.494;2024-03-25T00:42:16;5.27;;;1.60;;
6362;SDS011;3214;49.932;8.494;2024-03-25T00:44:44;4.67;;;1.80;;
6362;SDS011;3214;49.932;8.494;2024-03-25T00:47:10;5.60;;;1.47;;
6362;SDS011;3214;49.932;8.494;2024-03-25T00:49:37;4.90;;;1.87;;
6362;SDS011;3214;49.932;8.494;2024-03-25T00:52:03;3.57;;;1.20;;
6362;SDS011;3214;49.932;8.494;2024-03-25T00:54:30;2.80;;;1.40;;
6362;SDS011;3214;49.932;8.494;2024-03-25T00:56:56;2.60;;;1.60;;
6362;SDS011;3214;49.932;8.494;2024-03-25T00:59:23;5.40;;;1.70;;
6362;SDS011;3214;49.932;8.494;2024-03-25T01:01:51;4.97;;;1.67;;
6362;SDS011;3214;49.932;8.494;2024-03-25T01:04:17;6.27;;;1.73;;
6362;SDS011;3214;49.932;8.494;2024-03-25T01:06:43;5.37;;;1.90;;
6362;SDS011;3214;49.932;8.494;2024-03-25T01:09:10;3.70;;;1.77;;
6362;SDS011;3214;49.932;8.494;2024-03-25T01:11:36;4.23;;;1.60;;
6362;SDS011;3214;49.932;8.494;2024-03-25T01:14:02;5.77;;;1.70;;
6362;SDS011;3214;49.932;8.494;2024-03-25T01:16:28;3.60;;;1.40;;
6362;SDS011;3214;49.932;8.494;2024-03-25T01:18:56;5.50;;;1.80;;
6362;SDS011;3214;49.932;8.494;2024-03-25T01:21:23;4.77;;;1.60;;
6362;SDS011;3214;49.932;8.494;2024-03-25T01:23:50;4.80;;;1.73;;
6362;SDS011;3214;49.932;8.494;2024-03-25T01:26:15;6.17;;;1.90;;
6362;SDS011;3214;49.932;8.494;2024-03-25T01:28:42;4.73;;;1.87;;
6362;SDS011;3214;49.932;8.494;2024-03-25T01:31:08;4.87;;;1.73;;
6362;SDS011;3214;49.932;8.494;2024-03-25T01:33:35;4.33;;;1.70;;
6362;SDS011;3214;49.932;8.494;2024-03-25T01:36:02;4.20;;;1.70;;
6362;SDS011;3214;49.932;8.494;2024-03-25T01:38:29;4.47;;;1.60;;
6362;SDS011;3214;49.932;8.494;2024-03-25T01:40:55;6.93;;;1.80;;
6362;SDS011;3214;49.932;8.494;2024-03-25T01:43:22;5.57;;;1.77;;
6362;SDS011;3214;49.932;8.494;2024-03-25T01:45:48;4.70;;;1.63;;
6362;SDS011;3214;49.932;8.494;2024-03-25T01:48:16;5.47;;;2.03;;
6362;SDS011;3214;49.932;8.494;2024-03-25T01:50:43;6.17;;;2.37;;
6362;SDS011;3214;49.932;8.494;2024-03-25T01:53:12;4.77;;;2.00;;
6362;SDS011;3214;49.932;8.494;2024-03-25T01:55:40;5.47;;;1.77;;
6362;SDS011;3214;49.932;8.494;2024-03-25T01:58:08;6.30;;;2.00;;
6362;SDS011;3214;49.932;8.494;2024-03-25T02:00:34;3.77;;;1.93;;
6362;SDS011;3214;49.932;8.494;2024-03-25T02:03:02;4.97;;;1.80;;
6362;SDS011;3214;49.932;8.494;2024-03-25T02:05:28;5.63;;;1.70;;
6362;SDS011;3214;49.932;8.494;2024-03-25T02:07:55;4.60;;;1.63;;
6362;SDS011;3214;49.932;8.494;2024-03-25T02:10:23;4.63;;;2.00;;
6362;SDS011;3214;49.932;8.494;2024-03-25T02:12:51;4.37;;;1.90;;
6362;SDS011;3214;49.932;8.494;2024-03-25T02:15:17;3.83;;;1.73;;
6362;SDS011;3214;49.932;8.494;2024-03-25T02:17:44;2.93;;;1.73;;
6362;SDS011;3214;49.932;8.494;2024-03-25T02:20:10;3.60;;;1.73;;
6362;SDS011;3214;49.932;8.494;2024-03-25T02:22:40;4.70;;;1.90;;
6362;SDS011;3214;49.932;8.494;2024-03-25T02:25:07;4.33;;;2.43;;
6362;SDS011;3214;49.932;8.494;2024-03-25T02:27:37;3.07;;;1.90;;
6362;SDS011;3214;49.932;8.494;2024-03-25T02:30:03;4.57;;;1.97;;
6362;SDS011;3214;49.932;8.494;2024-03-25T02:32:32;5.07;;;1.87;;
6362;SDS011;3214;49.932;8.494;2024-03-25T02:34:58;2.17;;;1.50;;
6362;SDS011;3214;49.932;8.494;2024-03-25T02:37:25;3.13;;;1.90;;
6362;SDS011;3214;49.932;8.494;2024-03-25T02:39:51;8.67;;;1.90;;
6362;SDS011;3214;49.932;8.494;2024-03-25T02:42:19;5.47;;;1.87;;
6362;SDS011;3214;49.932;8.494;2024-03-25T02:44:46;3.00;;;1.77;;
6362;SDS011;3214;49.932;8.494;2024-03-25T02:47:13;3.97;;;1.80;;
6362;SDS011;3214;49.932;8.494;2024-03-25T02:49:39;4.37;;;1.93;;
6362;SDS011;3214;49.932;8.494;2024-03-25T02:52:08;3.53;;;2.00;;
6362;SDS011;3214;49.932;8.494;2024-03-25T02:54:33;3.33;;;1.80;;
6362;SDS011;3214;49.932;8.494;2024-03-25T02:57:00;3.47;;;1.93;;
6362;SDS011;3214;49.932;8.494;2024-03-25T02:59:26;3.70;;;2.10;;
6362;SDS011;3214;49.932;8.494;2024-03-25T03:01:54;4.80;;;1.93;;
6362;SDS011;3214;49.932;8.494;2024-03-25T03:04:20;4.73;;;1.83;;
6362;SDS011;3214;49.932;8.494;2024-03-25T03:06:47;3.73;;;1.80;;
6362;SDS011;3214;49.932;8.494;2024-03-25T03:09:12;3.13;;;1.60;;
6362;SDS011;3214;49.932;8.494;2024-03-25T03:11:40;4.30;;;2.20;;
6362;SDS011;3214;49.932;8.494;2024-03-25T03:14:06;3.27;;;1.60;;
6362;SDS011;3214;49.932;8.494;2024-03-25T03:16:33;4.50;;;2.03;;
6362;SDS011;3214;49.932;8.494;2024-03-25T03:19:00;5.40;;;2.20;;
6362;SDS011;3214;49.932;8.494;2024-03-25T03:21:27;5.67;;;1.73;;
6362;SDS011;3214;49.932;8.494;2024-03-25T03:23:53;2.40;;;1.53;;
6362;SDS011;3214;49.932;8.494;2024-03-25T03:26:20;7.03;;;1.83;;
6362;SDS011;3214;49.932;8.494;2024-03-25T03:28:46;5.93;;;2.00;;
6362;SDS011;3214;49.932;8.494;2024-03-25T03:31:12;5.17;;;1.90;;
6362;SDS011;3214;49.932;8.494;2024-03-25T03:33:38;7.53;;;1.90;;
6362;SDS011;3214;49.932;8.494;2024-03-25T03:36:06;3.50;;;1.87;;
6362;SDS011;3214;49.932;8.494;2024-03-25T03:38:32;4.57;;;1.90;;
6362;SDS011;3214;49.932;8.494;2024-03-25T03:40:59;3.73;;;1.97;;
6362;SDS011;3214;49.932;8.494;2024-03-25T03:43:27;4.47;;;1.87;;
6362;SDS011;3214;49.932;8.494;2024-03-25T03:45:54;3.93;;;2.00;;
6362;SDS011;3214;49.932;8.494;2024-03-25T03:48:20;5.37;;;2.10;;
6362;SDS011;3214;49.932;8.494;2024-03-25T03:50:47;5.73;;;1.97;;
6362;SDS011;3214;49.932;8.494;2024-03-25T03:53:14;5.77;;;1.97;;
6362;SDS011;3214;49.932;8.494;2024-03-25T03:55:41;4.27;;;2.07;;
6362;SDS011;3214;49.932;8.494;2024-03-25T03:58:06;4.70;;;2.10;;
6362;SDS011;3214;49.932;8.494;2024-03-25T04:00:34;5.57;;;2.13;;
6362;SDS011;3214;49.932;8.494;2024-03-25T04:03:00;5.77;;;1.93;;
6362;SDS011;3214;49.932;8.494;2024-03-25T04:05:30;6.53;;;1.90;;
6362;SDS011;3214;49.932;8.494;2024-03-25T04:07:56;7.93;;;2.20;;
6362;SDS011;3214;49.932;8.494;2024-03-25T04:10:26;5.77;;;1.93;;
6362;SDS011;3214;49.932;8.494;2024-03-25T04:12:52;4.33;;;2.10;;
6362;SDS011;3214;49.932;8.494;2024-03-25T04:15:19;6.60;;;2.23;;
6362;SDS011;3214;49.932;8.494;2024-03-25T04:17:45;5.67;;;2.17;;
6362;SDS011;3214;49.932;8.494;2024-03-25T04:20:13;5.70;;;2.10;;
6362;SDS011;3214;49.932;8.494;2024-03-25T04:22:40;7.40;;;2.17;;
6362;SDS011;3214;49.932;8.494;2024-03-25T04:25:08;3.97;;;2.20;;
6362;SDS011;3214;49.932;8.494;2024-03-25T04:27:37;2.53;;;1.80;;
6362;SDS011;3214;49.932;8.494;2024-03-25T04:30:04;5.00;;;2.13;;
6362;SDS011;3214;49.932;8.494;2024-03-25T04:32:32;6.67;;;2.30;;
6362;SDS011;3214;49.932;8.494;2024-03-25T04:34:59;5.20;;;2.00;;
6362;SDS011;3214;49.932;8.494;2024-03-25T04:37:24;5.97;;;2.00;;
6362;SDS011;3214;49.932;8.494;2024-03-25T04:39:50;6.57;;;2.47;;
6362;SDS011;3214;49.932;8.494;2024-03-25T04:42:16;4.30;;;1.93;;
6362;SDS011;3214;49.932;8.494;2024-03-25T04:44:43;5.33;;;2.23;;
6362;SDS011;3214;49.932;8.494;2024-03-25T04:47:09;7.03;;;2.27;;
6362;SDS011;3214;49.932;8.494;2024-03-25T04:49:35;7.27;;;2.30;;
6362;SDS011;3214;49.932;8.494;2024-03-25T04:52:01;6.13;;;2.70;;
6362;SDS011;3214;49.932;8.494;2024-03-25T04:54:27;5.83;;;2.40;;
6362;SDS011;3214;49.932;8.494;2024-03-25T04:56:53;8.57;;;2.40;;
6362;SDS011;3214;49.932;8.494;2024-03-25T04:59:19;6.43;;;2.23;;
6362;SDS011;3214;49.932;8.494;2024-03-25T05:01:46;3.57;;;1.87;;
6362;SDS011;3214;49.932;8.494;2024-03-25T05:04:12;5.83;;;2.27;;
6362;SDS011;3214;49.932;8.494;2024-03-25T05:06:38;5.97;;;2.50;;
6362;SDS011;3214;49.932;8.494;2024-03-25T05:09:04;4.33;;;1.97;;
6362;SDS011;3214;49.932;8.494;2024-03-25T05:11:30;5.33;;;2.00;;
6362;SDS011;3214;49.932;8.494;2024-03-25T05:13:56;5.80;;;2.30;;
6362;SDS011;3214;49.932;8.494;2024-03-25T05:16:22;5.97;;;2.07;;
6362;SDS011;3214;49.932;8.494;2024-03-25T05:18:49;3.50;;;1.77;;
6362;SDS011;3214;49.932;8.494;2024-03-25T05:21:15;4.17;;;1.70;;
6362;SDS011;3214;49.932;8.494;2024-03-25T05:23:41;5.20;;;2.07;;
6362;SDS011;3214;49.932;8.494;2024-03-25T05:26:07;8.30;;;2.30;;
6362;SDS011;3214;49.932;8.494;2024-03-25T05:28:33;5.47;;;2.03;;
6362;SDS011;3214;49.932;8.494;2024-03-25T05:31:04;6.83;;;2.53;;
6362;SDS011;3214;49.932;8.494;2024-03-25T05:33:30;6.10;;;2.03;;
6362;SDS011;3214;49.932;8.494;2024-03-25T05:35:58;7.60;;;2.50;;
6362;SDS011;3214;49.932;8.494;2024-03-25T05:38:24;8.50;;;2.60;;
6362;SDS011;3214;49.932;8.494;2024-03-25T05:40:50;5.73;;;2.23;;
6362;SDS011;3214;49.932;8.494;2024-03-25T05:43:15;4.83;;;2.10;;
6362;SDS011;3214;49.932;8.494;2024-03-25T05:45:49;5.37;;;2.50;;
6362;SDS011;3214;49.932;8.494;2024-03-25T05:48:16;4.97;;;2.00;;
6362;SDS011;3214;49.932;8.494;2024-03-25T05:50:42;4.40;;;2.00;;
6362;SDS011;3214;49.932;8.494;2024-03-25T05:53:09;4.87;;;2.07;;
6362;SDS011;3214;49.932;8.494;2024-03-25T05:55:35;5.50;;;2.20;;
6362;SDS011;3214;49.932;8.494;2024-03-25T05:58:01;6.03;;;2.10;;
6362;SDS011;3214;49.932;8.494;2024-03-25T06:00:27;6.80;;;2.83;;
6362;SDS011;3214;49.932;8.494;2024-03-25T06:02:53;7.67;;;2.50;;
6362;SDS011;3214;49.932;8.494;2024-03-25T06:05:18;5.73;;;2.27;;
6362;SDS011;3214;49.932;8.494;2024-03-25T06:07:45;7.50;;;2.33;;
6362;SDS011;3214;49.932;8.494;2024-03-25T06:10:12;6.43;;;2.30;;
6362;SDS011;3214;49.932;8.494;2024-03-25T06:12:38;6.10;;;2.50;;
6362;SDS011;3214;49.932;8.494;2024-03-25T06:15:04;8.90;;;2.20;;
6362;SDS011;3214;49.932;8.494;2024-03-25T06:17:30;8.60;;;2.43;;
6362;SDS011;3214;49.932;8.494;2024-03-25T06:19:56;8.40;;;2.73;;
6362;SDS011;3214;49.932;8.494;2024-03-25T06:22:22;4.87;;;2.17;;
6362;SDS011;3214;49.932;8.494;2024-03-25T06:24:48;8.77;;;2.43;;
6362;SDS011;3214;49.932;8.494;2024-03-25T06:27:15;6.13;;;2.80;;
6362;SDS011;3214;49.932;8.494;2024-03-25T06:29:41;7.30;;;2.50;;
6362;SDS011;3214;49.932;8.494;2024-03-25T06:32:08;8.37;;;2.83;;
6362;SDS011;3214;49.932;8.494;2024-03-25T06:34:52;7.63;;;2.40;;
6362;SDS011;3214;49.932;8.494;2024-03-25T06:37:18;6.77;;;2.30;;
6362;SDS011;3214;49.932;8.494;2024-03-25T06:39:44;7.70;;;2.40;;
6362;SDS011;3214;49.932;8.494;2024-03-25T06:42:10;4.83;;;2.00;;
6362;SDS011;3214;49.932;8.494;2024-03-25T06:44:37;6.93;;;2.23;;
6362;SDS011;3214;49.932;8.494;2024-03-25T06:47:03;6.43;;;2.47;;
6362;SDS011;3214;49.932;8.494;2024-03-25T06:49:29;6.47;;;2.40;;
6362;SDS011;3214;49.932;8.494;2024-03-25T06:51:55;7.80;;;2.00;;
6362;SDS011;3214;49.932;8.494;2024-03-25T06:54:21;7.90;;;2.10;;
6362;SDS011;3214;49.932;8.494;2024-03-25T06:56:47;9.40;;;2.40;;
6362;SDS011;3214;49.932;8.494;2024-03-25T06:59:12;8.40;;;2.40;;
6362;SDS011;3214;49.932;8.494;2024-03-25T07:01:40;7.03;;;2.27;;
6362;SDS011;3214;49.932;8.494;2024-03-25T07:04:06;4.50;;;2.10;;
6362;SDS011;3214;49.932;8.494;2024-03-25T07:06:31;5.07;;;2.20;;
6362;SDS011;3214;49.932;8.494;2024-03-25T07:08:57;6.50;;;2.40;;
6362;SDS011;3214;49.932;8.494;2024-03-25T07:11:23;8.37;;;2.50;;
6362;SDS011;3214;49.932;8.494;2024-03-25T07:13:49;3.63;;;2.33;;
6362;SDS011;3214;49.932;8.494;2024-03-25T07:16:15;5.47;;;2.10;;
6362;SDS011;3214;49.932;8.494;2024-03-25T07:18:42;7.10;;;2.93;;
6362;SDS011;3214;49.932;8.494;2024-03-25T07:21:08;5.63;;;2.17;;
6362;SDS011;3214;49.932;8.494;2024-03-25T07:23:33;6.93;;;2.73;;
6362;SDS011;3214;49.932;8.494;2024-03-25T07:25:59;7.03;;;2.67;;
6362;SDS011;3214;49.932;8.494;2024-03-25T07:28:25;5.37;;;2.50;;
6362;SDS011;3214;49.932;8.494;2024-03-25T07:30:51;5.40;;;3.00;;
6362;SDS011;3214;49.932;8.494;2024-03-25T07:33:17;6.07;;;2.77;;
6362;SDS011;3214;49.932;8.494;2024-03-25T07:35:44;5.17;;;2.63;;
6362;SDS011;3214;49.932;8.494;2024-03-25T07:38:10;6.43;;;2.97;;
6362;SDS011;3214;49.932;8.494;2024-03-25T07:40:36;6.63;;;2.40;;
6362;SDS011;3214;49.932;8.494;2024-03-25T07:43:01;6.90;;;2.77;;
6362;SDS011;3214;49.932;8.494;2024-03-25T07:45:27;3.97;;;1.80;;
6362;SDS011;3214;49.932;8.494;2024-03-25T07:47:54;5.37;;;2.17;;
6362;SDS011;3214;49.932;8.494;2024-03-25T07:50:19;4.20;;;1.90;;
6362;SDS011;3214;49.932;8.494;2024-03-25T07:52:47;8.60;;;2.00;;
6362;SDS011;3214;49.932;8.494;2024-03-25T07:55:12;4.83;;;1.80;;
6362;SDS011;3214;49.932;8.494;2024-03-25T07:57:38;8.20;;;2.40;;
6362;SDS011;3214;49.932;8.494;2024-03-25T08:00:05;4.00;;;1.80;;
6362;SDS011;3214;49.932;8.494;2024-03-25T08:02:31;8.97;;;2.00;;
6362;SDS011;3214;49.932;8.494;2024-03-25T08:04:57;5.77;;;2.10;;
6362;SDS011;3214;49.932;8.494;2024-03-25T08:07:23;6.00;;;2.70;;
6362;SDS011;3214;49.932;8.494;2024-03-25T08:09:50;5.00;;;2.23;;
6362;SDS011;3214;49.932;8.494;2024-03-25T08:12:16;6.77;;;2.10;;
6362;SDS011;3214;49.932;8.494;2024-03-25T08:14:42;4.37;;;1.50;;
6362;SDS011;3214;49.932;8.494;2024-03-25T08:17:08;4.97;;;2.00;;
6362;SDS011;3214;49.932;8.494;2024-03-25T08:19:34;7.67;;;2.10;;
6362;SDS011;3214;49.932;8.494;2024-03-25T08:22:00;8.53;;;1.90;;
6362;SDS011;3214;49.932;8.494;2024-03-25T08:24:26;6.63;;;1.60;;
6362;SDS011;3214;49.932;8.494;2024-03-25T08:26:53;5.10;;;1.67;;
6362;SDS011;3214;49.932;8.494;2024-03-25T08:29:19;7.20;;;1.90;;
6362;SDS011;3214;49.932;8.494;2024-03-25T08:31:45;8.63;;;2.40;;
6362;SDS011;3214;49.932;8.494;2024-03-25T08:34:11;8.80;;;2.20;;
6362;SDS011;3214;49.932;8.494;2024-03-25T08:36:37;8.00;;;1.83;;
6362;SDS011;3214;49.932;8.494;2024-03-25T08:39:02;4.77;;;1.97;;
6362;SDS011;3214;49.932;8.494;2024-03-25T08:41:28;7.47;;;1.70;;
6362;SDS011;3214;49.932;8.494;2024-03-25T08:43:56;7.20;;;2.50;;
6362;SDS011;3214;49.932;8.494;2024-03-25T08:46:22;6.20;;;1.83;;
6362;SDS011;3214;49.932;8.494;2024-03-25T08:48:47;5.93;;;1.97;;
6362;SDS011;3214;49.932;8.494;2024-03-25T08:51:13;7.70;;;1.80;;
6362;SDS011;3214;49.932;8.494;2024-03-25T08:53:39;9.10;;;1.77;;
6362;SDS011;3214;49.932;8.494;2024-03-25T08:56:05;6.37;;;1.80;;
6362;SDS011;3214;49.932;8.494;2024-03-25T08:58:31;8.97;;;1.60;;
6362;SDS011;3214;49.932;8.494;2024-03-25T09:00:59;6.90;;;1.80;;
6362;SDS011;3214;49.932;8.494;2024-03-25T09:03:25;10.53;;;2.00;;
6362;SDS011;3214;49.932;8.494;2024-03-25T09:05:50;11.57;;;2.13;;
6362;SDS011;3214;49.932;8.494;2024-03-25T09:08:16;6.90;;;1.80;;
6362;SDS011;3214;49.932;8.494;2024-03-25T09:10:43;7.63;;;2.07;;
6362;SDS011;3214;49.932;8.494;2024-03-25T09:13:27;10.33;;;2.20;;
6362;SDS011;3214;49.932;8.494;2024-03-25T09:15:53;7.00;;;1.60;;
6362;SDS011;3214;49.932;8.494;2024-03-25T09:18:21;4.90;;;1.80;;
6362;SDS011;3214;49.932;8.494;2024-03-25T09:20:46;6.63;;;1.73;;
6362;SDS011;3214;49.932;8.494;2024-03-25T09:23:12;6.07;;;1.63;;
6362;SDS011;3214;49.932;8.494;2024-03-25T09:25:38;7.43;;;1.70;;
6362;SDS011;3214;49.932;8.494;2024-03-25T09:28:04;8.50;;;1.97;;
6362;SDS011;3214;49.932;8.494;2024-03-25T09:30:31;7.20;;;1.60;;
6362;SDS011;3214;49.932;8.494;2024-03-25T09:32:57;7.60;;;2.10;;
6362;SDS011;3214;49.932;8.494;2024-03-25T09:35:24;5.87;;;1.87;;
6362;SDS011;3214;49.932;8.494;2024-03-25T09:37:50;6.30;;;2.30;;
6362;SDS011;3214;49.932;8.494;2024-03-25T09:40:16;8.43;;;2.20;;
6362;SDS011;3214;49.932;8.494;2024-03-25T09:42:42;6.27;;;1.97;;
6362;SDS011;3214;49.932;8.494;2024-03-25T09:45:13;5.57;;;2.20;;
6362;SDS011;3214;49.932;8.494;2024-03-25T09:47:41;4.47;;;1.80;;
6362;SDS011;3214;49.932;8.494;2024-03-25T09:50:10;4.90;;;1.70;;
6362;SDS011;3214;49.932;8.494;2024-03-25T09:52:38;10.73;;;2.07;;
6362;SDS011;3214;49.932;8.494;2024-03-25T09:55:05;5.03;;;1.53;;
6362;SDS011;3214;49.932;8.494;2024-03-25T09:57:31;7.07;;;2.10;;
6362;SDS011;3214;49.932;8.494;2024-03-25T09:59:58;7.03;;;2.10;;
6362;SDS011;3214;49.932;8.494;2024-03-25T10:02:24;5.73;;;2.10;;
6362;SDS011;3214;49.932;8.494;2024-03-25T10:04:52;5.23;;;1.60;;
6362;SDS011;3214;49.932;8.494;2024-03-25T10:07:21;4.87;;;1.60;;
6362;SDS011;3214;49.932;8.494;2024-03-25T10:09:49;7.87;;;1.77;;
6362;SDS011;3214;49.932;8.494;2024-03-25T10:12:15;5.23;;;1.73;;
6362;SDS011;3214;49.932;8.494;2024-03-25T10:14:41;4.43;;;1.90;;
6362;SDS011;3214;49.932;8.494;2024-03-25T10:17:07;5.07;;;1.67;;
6362;SDS011;3214;49.932;8.494;2024-03-25T10:19:33;4.80;;;1.60;;
6362;SDS011;3214;49.932;8.494;2024-03-25T10:22:03;3.60;;;1.47;;
6362;SDS011;3214;49.932;8.494;2024-03-25T10:24:36;4.30;;;1.50;;
6362;SDS011;3214;49.932;8.494;2024-03-25T10:27:05;3.93;;;1.60;;
6362;SDS011;3214;49.932;8.494;2024-03-25T10:29:30;3.77;;;1.60;;
6362;SDS011;3214;49.932;8.494;2024-03-25T10:32:00;3.53;;;1.90;;
6362;SDS011;3214;49.932;8.494;2024-03-25T10:34:26;3.20;;;1.43;;
6362;SDS011;3214;49.932;8.494;2024-03-25T10:36:52;2.97;;;1.60;;
6362;SDS011;3214;49.932;8.494;2024-03-25T10:39:21;4.50;;;1.60;;
6362;SDS011;3214;49.932;8.494;2024-03-25T10:41:56;2.83;;;1.60;;
6362;SDS011;3214;49.932;8.494;2024-03-25T10:44:24;3.70;;;1.60;;
6362;SDS011;3214;49.932;8.494;2024-03-25T10:46:51;4.10;;;1.43;;
6362;SDS011;3214;49.932;8.494;2024-03-25T10:49:23;4.53;;;1.50;;
6362;SDS011;3214;49.932;8.494;2024-03-25T10:51:56;3.57;;;1.60;;
6362;SDS011;3214;49.932;8.494;2024-03-25T10:54:23;3.33;;;1.50;;
6362;SDS011;3214;49.932;8.494;2024-03-25T10:56:49;5.93;;;1.90;;
6362;SDS011;3214;49.932;8.494;2024-03-25T10:59:15;5.23;;;1.70;;
6362;SDS011;3214;49.932;8.494;2024-03-25T11:01:44;5.03;;;2.20;;
6362;SDS011;3214;49.932;8.494;2024-03-25T11:04:10;4.90;;;1.53;;
6362;SDS011;3214;49.932;8.494;2024-03-25T11:06:37;3.17;;;1.43;;
6362;SDS011;3214;49.932;8.494;2024-03-25T11:09:03;2.60;;;1.60;;
6362;SDS011;3214;49.932;8.494;2024-03-25T11:11:30;4.70;;;1.70;;
6362;SDS011;3214;49.932;8.494;2024-03-25T11:13:57;4.90;;;1.97;;
6362;SDS011;3214;49.932;8.494;2024-03-25T11:16:26;4.83;;;1.87;;
6362;SDS011;3214;49.932;8.494;2024-03-25T11:18:59;2.73;;;1.37;;
6362;SDS011;3214;49.932;8.494;2024-03-25T11:21:27;4.43;;;1.80;;
6362;SDS011;3214;49.932;8.494;2024-03-25T11:23:52;4.33;;;1.90;;
6362;SDS011;3214;49.932;8.494;2024-03-25T11:26:19;3.70;;;1.83;;
6362;SDS011;3214;49.932;8.494;2024-03-25T11:28:45;2.60;;;1.50;;
6362;SDS011;3214;49.932;8.494;2024-03-25T11:31:11;5.83;;;1.90;;
6362;SDS011;3214;49.932;8.494;2024-03-25T11:33:37;4.40;;;2.17;;
6362;SDS011;3214;49.932;8.494;2024-03-25T11:36:05;3.97;;;1.60;;
6362;SDS011;3214;49.932;8.494;2024-03-25T11:38:32;5.10;;;2.00;;
6362;SDS011;3214;49.932;8.494;2024-03-25T11:40:58;4.20;;;1.70;;
6362;SDS011;3214;49.932;8.494;2024-03-25T11:43:24;3.40;;;1.80;;
6362;SDS011;3214;49.932;8.494;2024-03-25T11:45:50;3.10;;;1.60;;
6362;SDS011;3214;49.932;8.494;2024-03-25T11:48:16;4.20;;;1.73;;
6362;SDS011;3214;49.932;8.494;2024-03-25T11:50:44;3.67;;;1.70;;
6362;SDS011;3214;49.932;8.494;2024-03-25T11:53:12;2.73;;;1.50;;
6362;SDS011;3214;49.932;8.494;2024-03-25T11:55:38;6.30;;;1.50;;
6362;SDS011;3214;49.932;8.494;2024-03-25T11:58:04;3.30;;;1.60;;
6362;SDS011;3214;49.932;8.494;2024-03-25T12:00:30;4.53;;;1.70;;
6362;SDS011;3214;49.932;8.494;2024-03-25T12:02:56;4.70;;;1.60;;
6362;SDS011;3214;49.932;8.494;2024-03-25T12:05:22;2.80;;;2.00;;
6362;SDS011;3214;49.932;8.494;2024-03-25T12:07:48;5.03;;;1.77;;
6362;SDS011;3214;49.932;8.494;2024-03-25T12:10:16;5.70;;;2.13;;
6362;SDS011;3214;49.932;8.494;2024-03-25T12:13:01;5.90;;;1.90;;
6362;SDS011;3214;49.932;8.494;2024-03-25T12:15:27;4.53;;;1.67;;
6362;SDS011;3214;49.932;8.494;2024-03-25T12:17:53;4.17;;;1.80;;
6362;SDS011;3214;49.932;8.494;2024-03-25T12:20:19;5.07;;;2.00;;
6362;SDS011;3214;49.932;8.494;2024-03-25T12:22:45;5.10;;;1.63;;
6362;SDS011;3214;49.932;8.494;2024-03-25T12:25:11;4.00;;;1.60;;
6362;SDS011;3214;49.932;8.494;2024-03-25T12:27:39;4.10;;;1.67;;
6362;SDS011;3214;49.932;8.494;2024-03-25T12:30:05;3.17;;;1.40;;
6362;SDS011;3214;49.932;8.494;2024-03-25T12:32:36;2.70;;;1.37;;
6362;SDS011;3214;49.932;8.494;2024-03-25T12:35:03;4.57;;;2.20;;
6362;SDS011;3214;49.932;8.494;2024-03-25T12:37:31;5.13;;;1.93;;
6362;SDS011;3214;49.932;8.494;2024-03-25T12:39:57;3.77;;;1.80;;
6362;SDS011;3214;49.932;8.494;2024-03-25T12:42:23;3.60;;;1.80;;
6362;SDS011;3214;49.932;8.494;2024-03-25T12:44:51;3.33;;;1.80;;
6362;SDS011;3214;49.932;8.494;2024-03-25T12:47:17;6.60;;;2.00;;
6362;SDS011;3214;49.932;8.494;2024-03-25T12:49:43;4.73;;;2.00;;
6362;SDS011;3214;49.932;8.494;2024-03-25T12:52:09;4.27;;;1.90;;
6362;SDS011;3214;49.932;8.494;2024-03-25T12:54:35;5.53;;;1.90;;
6362;SDS011;3214;49.932;8.494;2024-03-25T12:57:01;4.87;;;1.70;;
6362;SDS011;3214;49.932;8.494;2024-03-25T12:59:27;2.20;;;1.50;;
6362;SDS011;3214;49.932;8.494;2024-03-25T13:01:54;4.10;;;1.83;;
6362;SDS011;3214;49.932;8.494;2024-03-25T13:04:21;4.67;;;1.73;;
6362;SDS011;3214;49.932;8.494;2024-03-25T13:06:46;3.23;;;1.73;;
6362;SDS011;3214;49.932;8.494;2024-03-25T13:09:12;3.73;;;1.50;;
6362;SDS011;3214;49.932;8.494;2024-03-25T13:11:38;3.37;;;1.57;;
6362;SDS011;3214;49.932;8.494;2024-03-25T13:14:04;5.87;;;1.80;;
6362;SDS011;3214;49.932;8.494;2024-03-25T13:16:30;4.43;;;1.73;;
6362;SDS011;3214;49.932;8.494;2024-03-25T13:18:58;4.23;;;1.60;;
6362;SDS011;3214;49.932;8.494;2024-03-25T13:21:24;4.07;;;1.90;;
6362;SDS011;3214;49.932;8.494;2024-03-25T13:23:50;5.13;;;2.00;;
6362;SDS011;3214;49.932;8.494;2024-03-25T13:26:16;3.17;;;1.80;;
6362;SDS011;3214;49.932;8.494;2024-03-25T13:28:42;3.63;;;1.90;;
6362;SDS011;3214;49.932;8.494;2024-03-25T13:31:08;2.67;;;1.80;;
6362;SDS011;3214;49.932;8.494;2024-03-25T13:33:34;3.20;;;1.70;;
6362;SDS011;3214;49.932;8.494;2024-03-25T13:36:01;3.03;;;1.80;;
6362;SDS011;3214;49.932;8.494;2024-03-25T13:38:27;3.57;;;1.80;;
6362;SDS011;3214;49.932;8.494;2024-03-25T13:40:53;7.73;;;1.90;;
6362;SDS011;3214;49.932;8.494;2024-03-25T13:43:19;3.50;;;1.40;;
6362;SDS011;3214;49.932;8.494;2024-03-25T13:45:48;3.57;;;1.50;;
6362;SDS011;3214;49.932;8.494;2024-03-25T13:48:15;3.90;;;1.57;;
6362;SDS011;3214;49.932;8.494;2024-03-25T13:50:41;3.53;;;1.40;;
6362;SDS011;3214;49.932;8.494;2024-03-25T13:53:09;3.17;;;1.30;;
6362;SDS011;3214;49.932;8.494;2024-03-25T13:55:35;2.53;;;1.37;;
6362;SDS011;3214;49.932;8.494;2024-03-25T13:58:01;2.57;;;1.13;;
6362;SDS011;3214;49.932;8.494;2024-03-25T14:00:27;3.67;;;1.60;;
6362;SDS011;3214;49.932;8.494;2024-03-25T14:02:53;3.87;;;1.77;;
6362;SDS011;3214;49.932;8.494;2024-03-25T14:05:19;2.93;;;1.70;;
6362;SDS011;3214;49.932;8.494;2024-03-25T14:07:45;1.97;;;1.50;;
6362;SDS011;3214;49.932;8.494;2024-03-25T14:10:12;1.83;;;1.50;;
6362;SDS011;3214;49.932;8.494;2024-03-25T14:12:38;1.90;;;1.70;;
6362;SDS011;3214;49.932;8.494;2024-03-25T14:15:05;2.47;;;1.60;;
6362;SDS011;3214;49.932;8.494;2024-03-25T14:17:31;3.17;;;1.40;;
6362;SDS011;3214;49.932;8.494;2024-03-25T14:19:57;3.43;;;1.30;;
6362;SDS011;3214;49.932;8.494;2024-03-25T14:22:23;2.40;;;1.47;;
6362;SDS011;3214;49.932;8.494;2024-03-25T14:24:49;3.50;;;1.20;;
6362;SDS011;3214;49.932;8.494;2024-03-25T14:27:17;5.10;;;2.00;;
6362;SDS011;3214;49.932;8.494;2024-03-25T14:29:43;2.03;;;1.40;;
6362;SDS011;3214;49.932;8.494;2024-03-25T14:32:08;3.40;;;1.50;;
6362;SDS011;3214;49.932;8.494;2024-03-25T14:34:34;3.63;;;1.67;;
6362;SDS011;3214;49.932;8.494;2024-03-25T14:37:00;2.53;;;1.60;;
6362;SDS011;3214;49.932;8.494;2024-03-25T14:39:26;3.43;;;1.73;;
6362;SDS011;3214;49.932;8.494;2024-03-25T14:41:52;2.67;;;1.60;;
6362;SDS011;3214;49.932;8.494;2024-03-25T14:44:19;3.00;;;1.60;;
6362;SDS011;3214;49.932;8.494;2024-03-25T14:46:45;1.90;;;1.40;;
6362;SDS011;3214;49.932;8.494;2024-03-25T14:49:11;3.07;;;1.47;;
6362;SDS011;3214;49.932;8.494;2024-03-25T14:51:37;3.20;;;1.60;;
6362;SDS011;3214;49.932;8.494;2024-03-25T14:54:03;3.40;;;1.83;;
6362;SDS011;3214;49.932;8.494;2024-03-25T14:56:28;4.67;;;1.80;;
6362;SDS011;3214;49.932;8.494;2024-03-25T14:58:54;2.73;;;1.50;;
6362;SDS011;3214;49.932;8.494;2024-03-25T15:01:22;4.37;;;1.47;;
6362;SDS011;3214;49.932;8.494;2024-03-25T15:03:48;3.23;;;1.50;;
6362;SDS011;3214;49.932;8.494;2024-03-25T15:06:13;2.90;;;1.30;;
6362;SDS011;3214;49.932;8.494;2024-03-25T15:08:39;1.60;;;1.40;;
6362;SDS011;3214;49.932;8.494;2024-03-25T15:11:05;2.20;;;1.43;;